createdAt,value
2022-10-14T00:13:28.874Z,1759.68533
2022-10-14T00:28:30.920Z,1753.9272
2022-10-14T00:43:32.872Z,1748.20663
2022-10-14T00:58:34.799Z,1736.87671
2022-10-14T01:13:36.730Z,1900.70972
2022-10-14T01:28:38.697Z,2019.59357
2022-10-14T01:43:40.614Z,1917.02482
2022-10-14T01:58:42.523Z,1821.89037
2022-10-14T02:13:44.397Z,1748.20663
2022-10-14T02:28:46.421Z,1713.55548
2022-10-14T02:43:48.447Z,1638.1423
2022-10-14T02:58:50.367Z,1570.00635
2022-10-14T03:13:52.266Z,1512.41587
2022-10-14T03:28:54.244Z,1430.09657
2022-10-14T03:43:56.236Z,1348.08904
2022-10-14T03:58:58.158Z,1247.67276
2022-10-14T04:14:00.046Z,1222.62824
2022-10-14T04:29:02.011Z,1210.47928
2022-10-14T04:44:03.974Z,1211.57374
2022-10-14T04:59:05.907Z,1235.02355
2022-10-14T05:14:07.795Z,1274.97672
2022-10-14T05:29:09.758Z,1615.43148
2022-10-14T05:44:11.673Z,1600.95629
2022-10-14T05:59:13.585Z,1520.99936
2022-10-14T06:14:15.475Z,1406.08656
2022-10-14T06:29:17.374Z,889.77473
2022-10-14T06:44:19.261Z,555.92298
2022-10-14T06:59:21.188Z,362.47528
2022-10-14T07:14:23.112Z,242.23688
2022-10-14T07:29:24.984Z,232.65421
2022-10-14T07:44:27.507Z,188.67178
2022-10-14T07:59:29.592Z,231.1844
2022-10-14T08:14:31.537Z,210.90251
2022-10-14T08:29:33.433Z,210.76755
2022-10-14T08:44:35.399Z,231.99866
2022-10-14T08:59:37.302Z,222.14038
2022-10-14T09:14:39.191Z,229.09384
2022-10-14T09:29:41.095Z,270.04362
2022-10-14T09:44:42.981Z,260.22852
2022-10-14T09:59:44.864Z,311.70274
2022-10-14T10:14:46.787Z,444.73848
2022-10-14T10:29:48.694Z,613.50249
2022-10-14T10:44:50.635Z,820.57612
2022-10-14T10:59:52.574Z,1000.0005
2022-10-14T11:14:54.514Z,1111.11161
2022-10-14T11:29:56.409Z,1208.29627
2022-10-14T11:44:58.331Z,1292.18952
2022-10-14T12:00:00.293Z,1364.56263
2022-10-14T12:15:02.229Z,1450.21697
2022-10-14T12:30:04.144Z,1502.24264
2022-10-14T12:45:06.047Z,1577.39896
2022-10-14T13:00:07.911Z,1631.163
2022-10-14T13:15:09.847Z,1710.2749
2022-10-14T13:30:11.800Z,1776.0111
2022-10-14T13:45:13.707Z,1872.81671
2022-10-14T14:00:41.286Z,1928.05805
2022-10-14T14:15:43.625Z,1966.25142
2022-10-14T14:30:45.541Z,2012.01251
2022-10-14T14:45:47.437Z,2056.79252
2022-10-14T15:00:49.302Z,1306.04339
2022-10-14T15:15:51.217Z,1240.74125
2022-10-14T15:30:53.150Z,1585.79931
2022-10-14T15:45:55.066Z,1774.83493
2022-10-14T16:00:56.965Z,1861.11161
2022-10-14T16:15:58.938Z,1835.61693
2022-10-14T16:31:00.865Z,1820.65267
2022-10-14T16:46:02.777Z,1824.37082
2022-10-14T17:01:06.510Z,1855.95618
2022-10-14T17:16:11.266Z,2016.5543
2022-10-14T17:31:13.197Z,2080.74584
2022-10-14T17:46:15.127Z,2056.79252
2022-10-14T18:01:17.080Z,2342.65785
2022-10-14T18:16:19.019Z,2196.72182
2022-10-14T18:31:20.955Z,2038.02331
2022-10-14T18:46:22.867Z,2216.70853
2022-10-14T19:01:24.792Z,2306.36884
2022-10-14T19:16:26.712Z,2316.33586
2022-10-14T19:31:28.642Z,2334.49528
2022-10-14T19:46:30.638Z,2350.8777
2022-10-14T20:01:32.844Z,2344.70742
2022-10-14T20:16:34.773Z,2330.43529
2022-10-14T20:31:36.678Z,2302.40601
2022-10-14T20:46:38.668Z,2271.18695
2022-10-14T21:01:40.723Z,2265.42739
2022-10-14T21:16:42.691Z,2290.5988
2022-10-14T21:31:44.640Z,2227.76443
2022-10-14T21:46:46.562Z,2173.56093
2022-10-14T22:01:48.511Z,1977.86028
2022-10-14T22:16:50.396Z,1882.02297
2022-10-14T22:31:52.323Z,1750.49037
2022-10-14T22:46:54.235Z,1670.82344
2022-10-14T23:01:56.103Z,1634.14683
2022-10-14T23:16:58.053Z,1591.44942
2022-10-14T23:31:59.960Z,1582.98927
2022-10-14T23:47:01.871Z,1578.32794
